INFORMACIÓN METAR y TAF
METAR FOR RJAA
ADDS - METARS form results

(2110 UTC 13 August 2022)
Data provider http://aviationweather.gov/metar/data/
 
METAR text: RJAA 132100Z 21006KT 160V250 9999 FEW015 BKN/// 26/24 Q1006 NOSIG
Conditions at: RJAA (NARITA INTL , JP) observed 2100 UTC 13 August 2022
Temperature: 26.0°C (79°F)
Dewpoint: 24.0°C (75°F) [RH = 89%]
Pressure (altimeter): 29.70 inches Hg (1006.0 mb)
Winds: from the SSW (210 degrees) at 7 MPH (6 knots; 3.1 m/s)
Visibility: 6 or more miles (10+ km)
Ceiling: at least 12,000 feet AGL
Clouds: few clouds at 1500 feet AGL
Weather: no significant weather observed at this time

METAR text: RJAA 132030Z AUTO 23006KT 200V260 9999 R16R/P2000N R16L/P2000N NSC 26/24 Q1005 NOSIG
Conditions at: RJAA (NARITA INTL , JP) observed 2030 UTC 13 August 2022
Temperature: 26.0°C (79°F)
Dewpoint: 24.0°C (75°F) [RH = 89%]
Pressure (altimeter): 29.68 inches Hg (1005.0 mb)
Winds: from the SW (230 degrees) at 7 MPH (6 knots; 3.1 m/s)
Visibility: 6 or more miles (10+ km)
Ceiling: at least 12,000 feet AGL
Clouds: sky clear below 12,000 feet AGL
Weather: no significant weather observed at this time

Forecast for: RJAA (NARITA INTL , JP)
Text: TAF RJAA 131705Z 1318/1500 22010KT 9999 FEW015 SCT030
Forecast period: 1800 UTC 13 August 2022 to 1200 UTC 14 August 2022
Forecast type: FROM: standard forecast or significant change
Winds: from the SW (220 degrees) at 12 MPH (10 knots; 5.1 m/s)
Visibility: 6 or more miles (10+ km)
Ceiling: at least 12,000 feet AGL
Clouds: few clouds at 1500 feet AGL
scattered clouds at 3000 feet AGL
Weather: no significant weather forecast for this period
Text: BECMG 1412/1415 30004KT
Forecast period: 1200 UTC 14 August 2022 to 0000 UTC 15 August 2022
Forecast type: BECOMING: Conditions expected to become as follows by 1500 UTC 14 August 2022
Winds: from the WNW (300 degrees) at 5 MPH (4 knots; 2.1 m/s)
Visibility: 6 or more miles (10+ km)
Ceiling: at least 12,000 feet AGL
Clouds: few clouds at 1500 feet AGL
scattered clouds at 3000 feet AGL
Weather: no significant weather forecast for this period

 MAPA DE AEROPUERTO

 INFORMACIÓN DE PISTA